Time;durP1;ratioP1;P1;durP2;ratioP2;P2;SDS_P1;SDS_P2;PMS_P1;PMS_P2;Temp;Humidity;BMP_temperature;BMP_pressure;BME280_temperature;BME280_humidity;BME280_pressure;Samples;Min_cycle;Max_cycle;Signal;HPM_P1;HPM_P2
2021/12/03 05:02:39;;;;;;;20.27;11.63;;;1.10;99.90;;;;;;5008664;23;20487;-83
2021/12/03 05:05:07;;;;;;;22.00;12.17;;;1.10;99.90;;;;;;4992867;28;20565;-83
2021/12/03 05:07:53;;;;;;;19.70;11.63;;;1.10;99.90;;;;;;4993059;28;20479;-83
2021/12/03 05:10:20;;;;;;;22.87;12.13;;;1.10;99.90;;;;;;4992587;28;20459;-83
2021/12/03 05:12:47;;;;;;;19.30;12.13;;;1.10;99.90;;;;;;4993390;28;20461;-83
2021/12/03 05:15:14;;;;;;;24.50;12.80;;;1.10;99.90;;;;;;5006960;23;21100;-77
2021/12/03 05:17:43;;;;;;;17.80;11.17;;;1.10;99.90;;;;;;4992020;28;20537;-77
2021/12/03 05:20:11;;;;;;;22.90;12.23;;;1.10;99.90;;;;;;4992162;28;20537;-77
2021/12/03 05:22:38;;;;;;;26.10;12.07;;;1.10;99.90;;;;;;4992126;28;20494;-77
2021/12/03 05:25:05;;;;;;;19.03;10.10;;;1.10;99.90;;;;;;4992152;28;20585;-77
2021/12/03 05:27:32;;;;;;;18.13;10.80;;;1.10;99.90;;;;;;4992212;28;20493;-77
2021/12/03 05:29:59;;;;;;;22.03;12.80;;;1.20;99.90;;;;;;4992193;28;20771;-77
2021/12/03 05:32:26;;;;;;;20.30;11.37;;;1.20;99.90;;;;;;4992230;28;20530;-77
2021/12/03 05:34:55;;;;;;;18.03;10.40;;;1.20;99.90;;;;;;4992233;28;21009;-77
2021/12/03 05:37:21;;;;;;;19.03;11.13;;;1.10;99.90;;;;;;4992254;28;20545;-77
2021/12/03 05:39:48;;;;;;;18.80;11.70;;;1.10;99.90;;;;;;4991664;28;20942;-69
2021/12/03 05:42:15;;;;;;;18.63;11.40;;;1.10;99.90;;;;;;4992352;28;20546;-68
2021/12/03 05:44:42;;;;;;;17.53;10.77;;;1.10;99.90;;;;;;4992161;28;20870;-71
2021/12/03 05:47:09;;;;;;;17.93;12.10;;;1.10;99.90;;;;;;4992127;28;20514;-72
2021/12/03 05:49:36;;;;;;;16.20;10.60;;;1.00;99.90;;;;;;4991592;28;21183;-71
2021/12/03 05:52:06;;;;;;;20.23;11.00;;;1.00;99.90;;;;;;4991773;28;20455;-72
2021/12/03 05:54:32;;;;;;;18.03;10.63;;;1.00;99.90;;;;;;4991602;28;20551;-71
2021/12/03 05:56:59;;;;;;;17.17;11.17;;;1.00;99.90;;;;;;4992091;28;20533;-71
2021/12/03 05:59:26;;;;;;;22.20;12.70;;;1.00;99.90;;;;;;4991784;28;20541;-72
2021/12/03 06:01:53;;;;;;;15.93;10.63;;;1.00;99.90;;;;;;4992053;28;20534;-72
2021/12/03 06:04:20;;;;;;;17.27;11.27;;;1.00;99.90;;;;;;4991660;28;20481;-71
2021/12/03 06:06:47;;;;;;;21.63;12.37;;;1.00;99.90;;;;;;4991961;28;20581;-72
2021/12/03 06:09:15;;;;;;;20.20;11.40;;;1.00;99.90;;;;;;4991506;28;20538;-72
2021/12/03 06:11:42;;;;;;;24.47;12.90;;;1.00;99.90;;;;;;4992110;28;20538;-72
2021/12/03 06:14:09;;;;;;;20.23;10.80;;;1.10;99.90;;;;;;4991689;28;20534;-72
2021/12/03 06:16:38;;;;;;;22.30;11.70;;;1.10;99.90;;;;;;4991802;28;20447;-72
2021/12/03 06:19:05;;;;;;;19.63;11.07;;;1.10;99.90;;;;;;4991803;28;20485;-72
2021/12/03 06:21:32;;;;;;;18.93;11.17;;;1.10;99.90;;;;;;4991936;28;20642;-72
2021/12/03 06:23:59;;;;;;;18.53;11.43;;;1.10;99.90;;;;;;4994100;28;20486;-72
2021/12/03 06:26:27;;;;;;;20.17;10.70;;;1.10;99.90;;;;;;4994981;28;20942;-72
2021/12/03 06:28:55;;;;;;;18.80;12.17;;;1.10;99.90;;;;;;4994779;28;21010;-72
2021/12/03 06:31:23;;;;;;;18.67;10.97;;;1.20;99.90;;;;;;4994966;28;20534;-72
2021/12/03 06:33:50;;;;;;;19.90;10.10;;;1.10;99.90;;;;;;4995276;28;20542;-72
2021/12/03 06:36:17;;;;;;;19.23;11.13;;;1.10;99.90;;;;;;4995080;28;20509;-73
2021/12/03 06:38:44;;;;;;;19.33;10.70;;;1.20;99.90;;;;;;4995008;28;20509;-73
2021/12/03 06:41:11;;;;;;;22.10;9.33;;;1.10;99.90;;;;;;4994740;28;20990;-73
2021/12/03 06:43:39;;;;;;;19.67;9.47;;;1.10;99.90;;;;;;4994084;28;20526;-68
2021/12/03 06:46:06;;;;;;;19.27;11.10;;;1.10;99.90;;;;;;4994105;28;21177;-68
2021/12/03 06:48:33;;;;;;;16.40;10.30;;;1.10;99.90;;;;;;4994657;28;20871;-68
2021/12/03 06:51:00;;;;;;;18.50;10.53;;;1.10;99.90;;;;;;4994606;28;20487;-72
2021/12/03 06:53:33;;;;;;;17.80;10.83;;;1.10;99.90;;;;;;4994067;28;20535;-72
2021/12/03 06:56:05;;;;;;;21.90;10.60;;;1.10;99.90;;;;;;4993462;28;20475;-72
2021/12/03 06:58:32;;;;;;;15.60;9.27;;;1.10;99.90;;;;;;4993537;28;20439;-72
2021/12/03 07:01:00;;;;;;;16.60;9.73;;;1.20;99.90;;;;;;4993614;28;20509;-72
2021/12/03 07:03:28;;;;;;;14.80;9.63;;;1.20;99.90;;;;;;4993702;28;20538;-72
2021/12/03 07:05:55;;;;;;;17.40;10.23;;;1.20;99.90;;;;;;4993378;28;20565;-72
2021/12/03 07:08:21;;;;;;;15.77;9.20;;;1.20;99.90;;;;;;4993464;28;20490;-72
2021/12/03 07:10:48;;;;;;;13.70;8.80;;;1.20;99.90;;;;;;4993125;28;20451;-72
2021/12/03 07:13:15;;;;;;;14.93;8.87;;;1.20;99.90;;;;;;4993363;28;20542;-72
2021/12/03 07:15:42;;;;;;;19.47;9.10;;;1.20;99.90;;;;;;4993177;28;20565;-72
2021/12/03 07:18:10;;;;;;;14.67;9.23;;;1.10;99.90;;;;;;4993607;28;21335;-72
2021/12/03 07:20:37;;;;;;;15.57;9.30;;;1.00;99.90;;;;;;4992980;28;20542;-72
2021/12/03 07:23:04;;;;;;;15.30;9.07;;;1.00;99.90;;;;;;4993262;28;20490;-72
2021/12/03 07:25:31;;;;;;;15.83;9.73;;;1.00;99.90;;;;;;4992516;28;20578;-72
2021/12/03 07:27:58;;;;;;;19.30;9.50;;;1.10;99.90;;;;;;4994292;28;20542;-72
2021/12/03 07:30:30;;;;;;;15.67;10.10;;;1.10;99.90;;;;;;4993781;28;20453;-72
2021/12/03 07:32:57;;;;;;;15.00;9.57;;;1.10;99.90;;;;;;4994235;28;20454;-72
2021/12/03 07:35:26;;;;;;;15.87;9.60;;;1.10;99.90;;;;;;4993700;28;20471;-72
2021/12/03 07:37:53;;;;;;;15.47;9.17;;;1.00;99.90;;;;;;4993845;28;20526;-72
2021/12/03 07:40:19;;;;;;;14.77;9.20;;;1.00;99.90;;;;;;4993840;28;20582;-72
2021/12/03 07:42:46;;;;;;;13.80;9.70;;;1.00;99.90;;;;;;4994079;28;20534;-72
2021/12/03 07:45:16;;;;;;;16.30;9.20;;;1.00;99.90;;;;;;4993828;28;20554;-72
2021/12/03 07:47:43;;;;;;;13.80;9.50;;;1.00;99.90;;;;;;4993884;28;20461;-72
2021/12/03 07:50:13;;;;;;;15.63;9.40;;;1.00;99.90;;;;;;4993485;28;20546;-72
2021/12/03 07:52:41;;;;;;;13.37;9.40;;;1.00;99.90;;;;;;4993399;28;20819;-72
2021/12/03 07:55:09;;;;;;;20.67;9.70;;;1.10;99.90;;;;;;4993463;28;20475;-72
2021/12/03 07:57:36;;;;;;;10.47;8.30;;;1.10;99.90;;;;;;4993736;28;20582;-72
2021/12/03 08:00:05;;;;;;;18.43;8.93;;;1.00;99.90;;;;;;4993380;28;20482;-72
2021/12/03 08:02:32;;;;;;;19.43;9.00;;;1.00;99.90;;;;;;4993552;28;20455;-72
2021/12/03 08:04:59;;;;;;;11.40;7.53;;;1.00;99.90;;;;;;4993264;28;20553;-72
2021/12/03 08:07:26;;;;;;;11.73;7.60;;;1.10;99.90;;;;;;4993234;28;20518;-72
2021/12/03 08:09:54;;;;;;;14.60;7.40;;;1.10;99.90;;;;;;4993224;28;20501;-72
2021/12/03 08:12:21;;;;;;;8.90;7.10;;;1.10;99.90;;;;;;4993194;28;20542;-72
2021/12/03 08:14:48;;;;;;;10.30;6.20;;;1.20;99.90;;;;;;4993113;28;20569;-72
2021/12/03 08:17:15;;;;;;;10.70;6.30;;;1.20;99.90;;;;;;4993233;28;20889;-72
2021/12/03 08:19:42;;;;;;;9.70;4.80;;;1.20;99.90;;;;;;4992706;28;20534;-72
2021/12/03 08:22:08;;;;;;;10.67;5.27;;;1.30;99.90;;;;;;4993306;28;20534;-72
2021/12/03 08:24:35;;;;;;;6.80;5.20;;;1.40;99.90;;;;;;4992825;28;21054;-72
2021/12/03 08:27:04;;;;;;;9.90;5.00;;;1.40;99.90;;;;;;4992968;28;20581;-72
2021/12/03 08:29:31;;;;;;;6.03;4.40;;;1.50;99.90;;;;;;4992805;28;20883;-72
2021/12/03 08:31:57;;;;;;;6.23;4.80;;;1.50;99.90;;;;;;4992916;28;20541;-72
2021/12/03 08:34:24;;;;;;;5.33;4.20;;;1.50;99.90;;;;;;4992851;28;20486;-72
2021/12/03 08:36:51;;;;;;;7.53;4.37;;;1.50;99.90;;;;;;4992713;28;20521;-72
2021/12/03 08:39:21;;;;;;;5.40;4.17;;;1.50;99.90;;;;;;4992384;28;20538;-72
2021/12/03 08:41:48;;;;;;;6.40;3.80;;;1.50;99.90;;;;;;4992923;28;20502;-72
2021/12/03 08:44:16;;;;;;;5.73;4.20;;;1.50;99.90;;;;;;4992541;28;20576;-72
2021/12/03 08:46:47;;;;;;;8.43;3.90;;;1.50;99.90;;;;;;4991912;28;20486;-72
2021/12/03 08:49:25;;;;;;;5.67;3.83;;;1.60;99.90;;;;;;4992714;28;20457;-72
2021/12/03 08:52:10;;;;;;;8.20;3.73;;;1.60;99.90;;;;;;4992858;28;20458;-72
2021/12/03 08:54:49;;;;;;;5.20;3.70;;;1.60;99.90;;;;;;4992021;28;20463;-72
2021/12/03 08:57:18;;;;;;;4.77;3.37;;;1.70;99.90;;;;;;4992574;28;20505;-72
2021/12/03 08:59:48;;;;;;;6.43;3.40;;;1.70;99.90;;;;;;4992323;28;20473;-72
2021/12/03 09:02:15;;;;;;;7.53;3.77;;;1.80;99.90;;;;;;4992541;28;20451;-72
2021/12/03 09:04:42;;;;;;;5.20;2.80;;;1.90;99.90;;;;;;4992557;28;20574;-72
2021/12/03 09:07:11;;;;;;;4.80;2.17;;;2.10;99.90;;;;;;4992443;28;20554;-72
2021/12/03 09:09:38;;;;;;;3.60;2.93;;;2.20;99.90;;;;;;4991994;28;20546;-72
2021/12/03 09:12:06;;;;;;;8.17;2.60;;;2.20;99.90;;;;;;4992682;28;20554;-72
2021/12/03 09:14:37;;;;;;;4.40;2.70;;;2.30;99.90;;;;;;4992346;28;20490;-72
2021/12/03 09:17:19;;;;;;;4.30;2.63;;;2.30;99.90;;;;;;4992596;28;20447;-72
2021/12/03 09:19:53;;;;;;;3.77;3.23;;;2.30;99.90;;;;;;4992133;28;20502;-72
2021/12/03 09:22:29;;;;;;;4.93;2.87;;;2.40;99.90;;;;;;4992304;28;20820;-73
2021/12/03 09:24:56;;;;;;;5.87;2.73;;;2.50;99.90;;;;;;4990412;28;20480;-72
2021/12/03 09:27:23;;;;;;;5.70;3.10;;;2.60;99.90;;;;;;4991756;28;20501;-72
2021/12/03 09:29:54;;;;;;;5.43;2.90;;;2.60;99.90;;;;;;4992274;28;20553;-72
2021/12/03 09:32:25;;;;;;;8.50;3.90;;;2.60;99.90;;;;;;4992652;28;20899;-72
2021/12/03 09:34:52;;;;;;;3.90;3.27;;;2.60;99.90;;;;;;4992469;28;20478;-72
2021/12/03 09:37:22;;;;;;;5.00;3.20;;;2.60;99.90;;;;;;4992388;28;20479;-72
2021/12/03 09:39:50;;;;;;;4.27;3.73;;;2.50;99.90;;;;;;4992152;28;20451;-72
2021/12/03 09:42:20;;;;;;;4.00;3.43;;;2.60;99.90;;;;;;4992275;28;20455;-72
2021/12/03 09:44:50;;;;;;;5.03;4.57;;;2.70;99.90;;;;;;4992066;28;20471;-72
2021/12/03 09:47:22;;;;;;;4.63;3.73;;;2.90;99.90;;;;;;4992005;28;20502;-72
2021/12/03 09:49:54;;;;;;;3.77;3.47;;;3.10;99.90;;;;;;4992047;28;20447;-72
2021/12/03 09:52:27;;;;;;;7.30;3.67;;;3.20;99.90;;;;;;4992247;28;20477;-72
2021/12/03 09:54:58;;;;;;;5.83;3.60;;;3.20;99.90;;;;;;4991642;28;20474;-72
2021/12/03 09:57:32;;;;;;;3.90;3.33;;;3.30;99.90;;;;;;4992347;28;20498;-73
2021/12/03 10:00:18;;;;;;;5.23;3.70;;;3.40;99.90;;;;;;4995583;28;20451;-73
2021/12/03 10:14:10;;;;;;;3.83;2.93;;;3.20;99.90;;;;;;4995895;28;20571;-73
2021/12/03 10:19:32;;;;;;;5.90;2.47;;;3.10;99.90;;;;;;4974684;28;20452;-72
2021/12/03 10:25:13;;;;;;;4.47;2.80;;;2.80;99.90;;;;;;4960290;28;20993;-73
2021/12/03 10:30:33;;;;;;;3.17;2.83;;;3.00;99.90;;;;;;4962909;28;20444;-73
2021/12/03 10:33:43;;;;;;;3.90;3.20;;;3.00;99.90;;;;;;4975726;28;20455;-73
2021/12/03 10:42:01;;;;;;;6.43;3.47;;;3.10;99.90;;;;;;4975703;28;20510;-72
2021/12/03 10:44:44;;;;;;;3.93;2.57;;;3.10;99.90;;;;;;4975590;28;20475;-71
2021/12/03 10:50:10;;;;;;;8.37;2.80;;;3.40;99.90;;;;;;4982018;28;20448;-72
2021/12/03 10:52:55;;;;;;;4.07;2.70;;;3.50;99.90;;;;;;4994945;28;20490;-72
2021/12/03 10:56:01;;;;;;;3.77;2.77;;;3.50;99.90;;;;;;4994626;28;20639;-72
2021/12/03 10:59:03;;;;;;;3.53;2.93;;;3.40;99.90;;;;;;4994929;28;20455;-72
2021/12/03 11:47:43;;;;;;;5.00;3.30;;;3.80;99.90;;;;;;4992704;28;20475;-73
2021/12/03 13:24:49;;;;;;;4.40;3.27;;;4.70;99.90;;;;;;5108309;28;20955;-72
2021/12/03 14:37:38;;;;;;;4.13;3.40;;;4.20;99.90;;;;;;5093207;28;20855;-73
2021/12/03 14:40:35;;;;;;;6.10;3.70;;;4.10;99.90;;;;;;5092833;28;20843;-73
2021/12/03 14:43:22;;;;;;;8.93;3.20;;;4.10;99.90;;;;;;5092900;28;20530;-72
2021/12/03 14:51:47;;;;;;;6.47;3.40;;;3.90;99.90;;;;;;5092167;28;20447;-72
2021/12/03 14:54:44;;;;;;;4.17;3.77;;;3.90;99.90;;;;;;5092745;28;20470;-72
2021/12/03 14:57:17;;;;;;;9.70;4.67;;;3.90;99.90;;;;;;5092745;28;20451;-72
2021/12/03 14:59:59;;;;;;;5.73;3.20;;;3.90;99.90;;;;;;5092377;28;20450;-72
2021/12/03 15:02:42;;;;;;;3.87;3.47;;;3.80;99.90;;;;;;5092529;28;20468;-72
2021/12/03 15:05:23;;;;;;;2.60;2.40;;;3.80;99.90;;;;;;5092334;28;20557;-72
2021/12/03 15:07:52;;;;;;;2.60;2.27;;;3.80;99.90;;;;;;5092288;28;20516;-72
2021/12/03 15:10:26;;;;;;;3.40;2.37;;;3.80;99.90;;;;;;5091282;28;20887;-72
2021/12/03 15:16:29;;;;;;;3.77;2.93;;;3.80;99.90;;;;;;5105352;27;20529;-72
2021/12/03 15:19:05;;;;;;;7.30;2.80;;;3.80;99.90;;;;;;5097085;28;20438;-72
2021/12/03 15:24:39;;;;;;;6.93;3.43;;;3.80;99.90;;;;;;5088059;28;20496;-72
2021/12/03 15:27:32;;;;;;;3.43;3.13;;;3.80;99.90;;;;;;5088284;28;20489;-72
2021/12/03 15:30:18;;;;;;;7.13;3.30;;;3.70;99.90;;;;;;5087852;28;20457;-72
2021/12/03 15:32:49;;;;;;;12.87;4.00;;;3.70;99.90;;;;;;5088216;28;20459;-72
2021/12/03 15:35:19;;;;;;;8.27;4.90;;;3.70;99.90;;;;;;5087777;28;20914;-72
2021/12/03 15:52:25;;;;;;;13.53;6.70;;;3.50;99.90;;;;;;5087677;28;20549;-72
2021/12/03 16:08:27;;;;;;;8.93;6.17;;;3.40;99.90;;;;;;5108319;28;20855;-77
2021/12/03 16:11:03;;;;;;;8.83;4.93;;;3.30;99.90;;;;;;5109161;28;20536;-77
2021/12/03 16:13:42;;;;;;;7.30;4.63;;;3.30;99.90;;;;;;5109305;28;20528;-77
2021/12/03 16:16:40;;;;;;;6.90;4.90;;;3.20;99.90;;;;;;5108559;28;20469;-76
2021/12/03 16:19:31;;;;;;;6.40;4.13;;;3.20;99.90;;;;;;5108383;28;20450;-77
2021/12/03 16:25:02;;;;;;;8.67;4.30;;;3.00;99.90;;;;;;5104584;28;20458;-77
2021/12/03 16:44:05;;;;;;;6.63;5.30;;;2.90;99.90;;;;;;5082018;28;20451;-72
2021/12/03 16:46:43;;;;;;;8.43;4.60;;;2.90;99.90;;;;;;5074019;28;20451;-72
2021/12/03 16:51:54;;;;;;;5.50;4.60;;;2.80;99.90;;;;;;5074257;28;20832;-72
2021/12/03 16:54:27;;;;;;;5.10;3.70;;;2.80;99.90;;;;;;5073686;28;20893;-72
2021/12/03 16:56:55;;;;;;;6.50;4.70;;;2.70;99.90;;;;;;5073916;28;20943;-73
2021/12/03 16:59:24;;;;;;;6.90;4.40;;;2.70;99.90;;;;;;5073516;28;20828;-72
2021/12/03 17:01:56;;;;;;;5.00;3.83;;;2.70;99.90;;;;;;5073960;28;20827;-72
2021/12/03 17:04:39;;;;;;;3.90;3.20;;;2.60;99.90;;;;;;5073921;28;21038;-72
2021/12/03 17:10:09;;;;;;;5.53;3.93;;;2.60;99.90;;;;;;5073695;28;20801;-72
2021/12/03 17:15:30;;;;;;;3.77;3.37;;;2.60;99.90;;;;;;5087291;22;20491;-75
2021/12/03 17:46:44;;;;;;;4.17;3.23;;;2.70;99.90;;;;;;5013716;28;20445;-76
2021/12/03 17:49:29;;;;;;;4.43;3.47;;;2.70;99.90;;;;;;5013661;28;20450;-76
2021/12/03 17:52:08;;;;;;;4.53;3.30;;;2.70;99.90;;;;;;5013798;28;20476;-76
2021/12/03 17:54:46;;;;;;;5.47;3.03;;;2.70;99.90;;;;;;5013384;28;20585;-76
2021/12/03 17:57:23;;;;;;;9.07;3.30;;;2.80;99.90;;;;;;5013213;28;20978;-78
2021/12/03 17:59:52;;;;;;;3.73;3.27;;;2.80;99.90;;;;;;5000776;28;20454;-79
2021/12/03 18:02:28;;;;;;;4.17;3.33;;;2.80;99.90;;;;;;5013588;28;20460;-78
2021/12/03 18:05:17;;;;;;;3.53;3.10;;;2.80;99.90;;;;;;5013331;28;20492;-78
2021/12/03 18:07:55;;;;;;;5.47;3.60;;;2.80;99.90;;;;;;5013373;28;20450;-78
2021/12/03 18:10:41;;;;;;;3.73;3.13;;;2.80;99.90;;;;;;5012282;28;20449;-78
2021/12/03 18:44:02;;;;;;;3.03;2.70;;;3.00;99.90;;;;;;5012382;28;20825;-77
2021/12/03 18:47:00;;;;;;;7.00;3.20;;;3.10;99.90;;;;;;5011223;28;20478;-77
2021/12/03 18:49:52;;;;;;;4.33;2.50;;;3.10;99.90;;;;;;5009901;28;20872;-77
2021/12/03 18:52:44;;;;;;;5.70;3.40;;;3.10;99.90;;;;;;5011648;28;20438;-77
2021/12/03 18:55:13;;;;;;;6.10;3.97;;;3.10;99.90;;;;;;5011591;28;20231;-77
2021/12/03 18:57:43;;;;;;;4.43;3.70;;;3.10;99.90;;;;;;5012065;28;20482;-79
2021/12/03 19:00:13;;;;;;;7.07;4.50;;;3.20;99.90;;;;;;5008578;28;21053;-78
2021/12/03 19:02:43;;;;;;;6.97;4.53;;;3.20;99.90;;;;;;5010197;28;20470;-77
2021/12/03 19:05:17;;;;;;;7.77;4.00;;;3.20;99.90;;;;;;5011775;28;20450;-77
2021/12/03 19:07:47;;;;;;;10.63;6.03;;;3.20;99.90;;;;;;5012220;28;20528;-77
2021/12/03 19:10:18;;;;;;;10.20;5.60;;;3.20;99.90;;;;;;5011416;28;20489;-77
2021/12/03 19:12:51;;;;;;;9.63;4.37;;;3.30;99.90;;;;;;5010985;28;20489;-78
2021/12/03 19:15:18;;;;;;;6.10;4.03;;;3.10;99.90;;;;;;5011658;28;20532;-78
2021/12/03 19:17:48;;;;;;;6.30;3.80;;;3.10;99.90;;;;;;5012111;28;20481;-76
2021/12/03 19:20:21;;;;;;;5.60;3.83;;;3.10;99.90;;;;;;5011702;28;20553;-76
2021/12/03 19:22:49;;;;;;;6.97;4.33;;;3.10;99.90;;;;;;5012416;28;20442;-76
2021/12/03 19:25:17;;;;;;;6.50;4.63;;;3.10;99.90;;;;;;5011871;28;20454;-77
2021/12/03 19:27:44;;;;;;;9.77;6.30;;;3.20;99.90;;;;;;5012188;28;21033;-76
2021/12/03 19:30:11;;;;;;;9.10;5.13;;;3.10;99.90;;;;;;5012091;28;20529;-76
2021/12/03 19:32:39;;;;;;;7.90;4.60;;;3.20;99.90;;;;;;5011803;28;21004;-76
2021/12/03 19:35:07;;;;;;;8.70;4.43;;;3.20;99.90;;;;;;5011914;28;20555;-76
2021/12/03 19:37:36;;;;;;;5.30;4.27;;;3.20;99.90;;;;;;5011631;28;20474;-76
2021/12/03 19:40:08;;;;;;;7.30;3.80;;;3.30;99.90;;;;;;5011361;28;20450;-77
2021/12/03 19:42:38;;;;;;;5.93;3.93;;;3.30;99.90;;;;;;5011684;28;20462;-76
2021/12/03 19:45:07;;;;;;;7.53;4.13;;;3.40;99.90;;;;;;5012060;28;20463;-76
2021/12/03 19:47:46;;;;;;;8.32;4.85;;;3.40;99.90;;;;;;5011022;28;20462;-76
2021/12/03 19:50:20;;;;;;;5.00;4.50;;;3.70;99.90;;;;;;4996631;28;20734;-76
2021/12/03 19:52:55;;;;;;;4.90;4.40;;;3.80;99.90;;;;;;5011928;28;20462;-76
2021/12/03 19:55:22;;;;;;;8.30;5.33;;;3.80;99.90;;;;;;5011327;28;20493;-76
2021/12/03 19:57:49;;;;;;;6.80;4.90;;;3.70;99.90;;;;;;5009869;28;20895;-76
2021/12/03 20:00:16;;;;;;;13.73;6.00;;;3.70;99.90;;;;;;5010069;28;21222;-76
2021/12/03 20:02:43;;;;;;;5.93;4.67;;;3.70;99.90;;;;;;5014619;28;20478;-76
2021/12/03 20:05:10;;;;;;;12.60;5.53;;;3.60;99.90;;;;;;5014411;28;20449;-76
2021/12/03 20:07:38;;;;;;;11.17;7.20;;;3.60;99.90;;;;;;5014107;28;20454;-76
2021/12/03 20:10:10;;;;;;;9.37;5.17;;;3.60;99.90;;;;;;5007369;28;20476;-76
2021/12/03 20:12:38;;;;;;;21.27;11.70;;;3.60;99.90;;;;;;5014105;28;20453;-76
2021/12/03 20:15:08;;;;;;;25.50;13.10;;;3.60;99.90;;;;;;5009974;28;20497;-76
2021/12/03 20:17:41;;;;;;;21.70;12.63;;;3.50;99.90;;;;;;5010569;28;20469;-76
2021/12/03 20:20:09;;;;;;;13.27;9.50;;;3.60;99.90;;;;;;5013370;28;20536;-77
2021/12/03 20:22:43;;;;;;;14.00;8.20;;;3.60;99.90;;;;;;5013998;28;20462;-75
2021/12/03 20:28:14;;;;;;;5.63;5.13;;;3.50;99.90;;;;;;5129323;27;20533;-77
2021/12/03 20:30:44;;;;;;;22.57;10.33;;;3.50;99.90;;;;;;5128405;28;20886;-77
2021/12/03 20:33:38;;;;;;;16.87;8.07;;;3.50;99.90;;;;;;5113473;28;20492;-77
2021/12/03 20:38:50;;;;;;;6.83;4.90;;;3.60;99.90;;;;;;5095145;28;20452;-76
2021/12/03 20:41:28;;;;;;;12.07;7.10;;;3.50;99.90;;;;;;5108547;28;20860;-77
2021/12/03 20:44:05;;;;;;;14.73;8.80;;;3.50;99.90;;;;;;5108945;28;20434;-76
2021/12/03 20:46:44;;;;;;;10.57;8.37;;;3.50;99.90;;;;;;5108568;28;20493;-76
2021/12/03 20:49:31;;;;;;;10.20;6.60;;;3.50;99.90;;;;;;5108561;28;20430;-76
2021/12/03 20:54:42;;;;;;;10.80;6.90;;;3.50;99.90;;;;;;5094658;28;20933;-76
2021/12/03 21:08:19;;;;;;;9.50;6.13;;;3.50;99.90;;;;;;5108179;28;20472;-76
2021/12/03 21:10:50;;;;;;;6.40;5.40;;;3.50;99.90;;;;;;5108236;28;20437;-78
2021/12/03 21:13:24;;;;;;;6.37;5.03;;;3.60;99.90;;;;;;5108203;28;20456;-76
2021/12/03 21:16:09;;;;;;;10.00;5.30;;;3.60;99.90;;;;;;5107870;28;20477;-76
2021/12/03 21:18:42;;;;;;;8.63;5.17;;;3.60;99.90;;;;;;5107819;28;20582;-76
2021/12/03 21:21:11;;;;;;;4.57;4.10;;;3.60;99.90;;;;;;5108074;28;20434;-76
2021/12/03 21:23:42;;;;;;;7.00;6.10;;;3.60;99.90;;;;;;5107029;28;20450;-77
2021/12/03 21:26:15;;;;;;;10.63;6.60;;;3.60;99.90;;;;;;5102760;28;20488;-77
2021/12/03 21:28:49;;;;;;;8.10;5.53;;;3.60;99.90;;;;;;5103654;28;20461;-76
2021/12/03 21:31:21;;;;;;;6.60;5.17;;;3.60;99.90;;;;;;5105941;28;20450;-76
2021/12/03 21:39:22;;;;;;;7.17;5.43;;;3.60;99.90;;;;;;5073615;28;20824;-76
2021/12/03 21:41:49;;;;;;;9.83;5.63;;;3.60;99.90;;;;;;5073184;28;20447;-76
2021/12/03 21:44:18;;;;;;;7.47;5.87;;;3.60;99.90;;;;;;5073649;28;20483;-76
2021/12/03 21:46:46;;;;;;;8.30;5.30;;;3.60;99.90;;;;;;5074456;28;20861;-76
2021/12/03 21:49:13;;;;;;;8.13;4.73;;;3.60;99.90;;;;;;5074160;28;20542;-76
2021/12/03 21:51:42;;;;;;;5.87;5.07;;;3.60;99.90;;;;;;5074177;28;20483;-76
2021/12/03 21:54:09;;;;;;;12.10;5.77;;;3.60;99.90;;;;;;5074045;28;20959;-76
2021/12/03 21:56:37;;;;;;;6.17;4.60;;;3.60;99.90;;;;;;5074099;28;21034;-76
2021/12/03 21:59:04;;;;;;;6.00;4.97;;;3.70;99.90;;;;;;5074119;28;20451;-76
2021/12/03 22:01:32;;;;;;;5.17;4.47;;;3.60;99.90;;;;;;5074364;28;20530;-76
2021/12/03 22:04:01;;;;;;;9.20;5.50;;;3.70;99.90;;;;;;5074039;28;20451;-76
2021/12/03 22:06:29;;;;;;;7.73;5.50;;;3.70;99.90;;;;;;5074375;28;20495;-76
2021/12/03 22:08:56;;;;;;;6.27;4.90;;;3.70;99.90;;;;;;5073572;28;20451;-76
2021/12/03 22:11:24;;;;;;;8.63;5.70;;;3.70;99.90;;;;;;5074359;28;20443;-76
2021/12/03 22:13:51;;;;;;;8.60;5.70;;;3.60;99.90;;;;;;5074087;28;20543;-76
2021/12/03 22:16:18;;;;;;;7.53;3.57;;;3.60;99.90;;;;;;5074000;28;20502;-76
2021/12/03 22:18:46;;;;;;;3.33;3.03;;;3.40;99.90;;;;;;5073676;28;20832;-76
2021/12/03 22:21:16;;;;;;;5.17;3.47;;;3.10;99.90;;;;;;5073507;28;20542;-76
2021/12/03 22:23:43;;;;;;;4.03;3.63;;;3.00;99.90;;;;;;5074011;28;20834;-76
2021/12/03 22:26:11;;;;;;;4.20;3.50;;;2.90;99.90;;;;;;5073706;28;20487;-77
2021/12/03 22:28:38;;;;;;;4.23;2.90;;;3.00;99.90;;;;;;5073701;28;20572;-77
2021/12/03 22:31:05;;;;;;;4.37;2.97;;;3.00;99.90;;;;;;5073417;28;20546;-77
2021/12/03 22:33:32;;;;;;;3.40;2.90;;;3.00;99.90;;;;;;5073572;28;20545;-77
2021/12/03 22:36:00;;;;;;;3.23;2.93;;;3.10;99.90;;;;;;5073199;28;20550;-77
2021/12/03 22:38:28;;;;;;;2.87;2.60;;;3.20;99.90;;;;;;5073611;28;20494;-77
2021/12/03 22:40:55;;;;;;;5.77;3.80;;;3.20;99.90;;;;;;5073152;28;20967;-76
2021/12/03 22:43:23;;;;;;;5.10;4.10;;;3.30;99.90;;;;;;5073275;28;20974;-77
2021/12/03 22:45:58;;;;;;;4.73;4.30;;;3.30;99.90;;;;;;5073296;28;20525;-77
2021/12/03 22:48:41;;;;;;;7.57;5.30;;;3.30;99.90;;;;;;5072977;28;20548;-77
2021/12/03 22:51:30;;;;;;;4.50;3.70;;;3.40;99.90;;;;;;5071982;28;20486;-77
2021/12/03 22:53:58;;;;;;;5.93;4.17;;;3.40;99.90;;;;;;5073254;28;20443;-76
2021/12/03 22:56:25;;;;;;;7.30;4.37;;;3.40;99.90;;;;;;5072974;28;20891;-76
2021/12/03 22:58:53;;;;;;;6.10;4.13;;;3.40;99.90;;;;;;5072570;28;20534;-76
